Time;durP1;ratioP1;P1;durP2;ratioP2;P2;SDS_P1;SDS_P2;PMS_P1;PMS_P2;Temp;Humidity;BMP_temperature;BMP_pressure;BME280_temperature;BME280_humidity;BME280_pressure;Samples;Min_cycle;Max_cycle;Signal;HPM_P1;HPM_P2
2023/10/27 00:01:43;;;;;;;11.18;5.47;;;-0.90;99.20;;;;;;5027359;28;20014;-85
2023/10/27 00:04:09;;;;;;;10.48;5.50;;;-0.90;99.20;;;;;;4999954;28;20083;-84
2023/10/27 00:06:35;;;;;;;11.65;6.43;;;-0.90;99.30;;;;;;5013050;28;20030;-82
2023/10/27 00:09:01;;;;;;;6.82;4.75;;;-0.80;99.40;;;;;;5002014;28;20029;-83
2023/10/27 00:11:27;;;;;;;9.32;6.68;;;-0.80;99.30;;;;;;4998988;28;20030;-83
2023/10/27 00:13:54;;;;;;;8.73;5.93;;;-0.80;99.30;;;;;;5019930;28;20027;-82
2023/10/27 00:16:20;;;;;;;12.27;6.32;;;-0.80;99.50;;;;;;5032583;28;20382;-82
2023/10/27 00:18:45;;;;;;;8.98;6.45;;;-0.70;99.20;;;;;;5032105;28;20029;-83
2023/10/27 00:21:11;;;;;;;8.48;6.28;;;-0.70;99.20;;;;;;5032276;28;20468;-83
2023/10/27 00:23:37;;;;;;;8.00;5.18;;;-0.70;99.20;;;;;;5014264;28;20076;-81
2023/10/27 00:26:03;;;;;;;10.65;4.88;;;-0.70;99.30;;;;;;5032024;28;20395;-81
2023/10/27 00:28:29;;;;;;;7.65;5.50;;;-0.70;99.30;;;;;;5016039;28;20588;-83
2023/10/27 00:30:55;;;;;;;9.07;5.88;;;-0.80;99.20;;;;;;5026751;28;20025;-81
2023/10/27 00:33:21;;;;;;;8.45;5.75;;;-0.80;99.20;;;;;;5032335;28;20032;-81
2023/10/27 00:35:52;;;;;;;8.18;6.13;;;-0.80;99.30;;;;;;5037925;28;20539;-82
2023/10/27 00:38:18;;;;;;;8.55;6.22;;;-0.80;99.20;;;;;;5033809;28;20159;-82
2023/10/27 00:40:44;;;;;;;8.55;6.07;;;-0.80;99.10;;;;;;5012341;28;20026;-83
2023/10/27 00:43:15;;;;;;;6.18;4.75;;;-0.90;99.20;;;;;;5033104;28;20020;-83
2023/10/27 00:45:42;;;;;;;6.53;4.75;;;-0.90;99.30;;;;;;5017136;28;20022;-82
2023/10/27 00:48:08;;;;;;;9.32;6.28;;;-0.80;99.40;;;;;;5012173;28;20037;-83
2023/10/27 00:50:34;;;;;;;7.93;5.88;;;-0.80;99.40;;;;;;5012026;28;20157;-84
2023/10/27 00:53:00;;;;;;;7.90;5.88;;;-0.80;99.30;;;;;;5022052;28;20103;-84
2023/10/27 00:55:26;;;;;;;9.20;5.68;;;-0.80;99.40;;;;;;4994505;28;20030;-85
2023/10/27 00:57:54;;;;;;;7.50;5.40;;;-0.70;99.50;;;;;;5012302;28;20468;-85
2023/10/27 01:00:20;;;;;;;8.90;6.88;;;-0.70;99.60;;;;;;5012538;28;20033;-85
2023/10/27 01:02:46;;;;;;;7.57;5.38;;;-0.70;99.60;;;;;;5016572;28;20075;-84
2023/10/27 01:05:12;;;;;;;7.53;5.50;;;-0.70;99.70;;;;;;5012643;28;20030;-85
2023/10/27 01:07:39;;;;;;;6.93;5.10;;;-0.70;99.70;;;;;;5012289;28;20034;-82
2023/10/27 01:10:06;;;;;;;8.80;5.93;;;-0.70;99.70;;;;;;4994414;28;20503;-82
2023/10/27 01:12:32;;;;;;;10.43;5.50;;;-0.70;99.70;;;;;;5012052;28;20100;-86
2023/10/27 01:14:57;;;;;;;9.55;5.15;;;-0.70;99.70;;;;;;5010362;28;20099;-85
2023/10/27 01:17:23;;;;;;;6.60;5.20;;;-0.60;99.70;;;;;;5009906;28;20026;-86
2023/10/27 01:19:49;;;;;;;8.30;4.60;;;-0.60;99.60;;;;;;5017694;28;20026;-86
2023/10/27 01:22:15;;;;;;;6.65;4.80;;;-0.60;99.50;;;;;;5012733;28;20434;-85
2023/10/27 01:24:41;;;;;;;5.20;3.95;;;-0.60;99.40;;;;;;5012342;28;20022;-86
2023/10/27 01:27:07;;;;;;;6.97;4.45;;;-0.60;99.50;;;;;;5011848;28;20034;-83
2023/10/27 01:29:34;;;;;;;7.20;5.20;;;-0.60;99.50;;;;;;5012315;28;20025;-85
2023/10/27 01:31:59;;;;;;;6.72;5.00;;;-0.60;99.40;;;;;;4994498;28;20368;-85
2023/10/27 01:34:25;;;;;;;7.15;4.32;;;-0.60;99.40;;;;;;5013110;28;20029;-89
2023/10/27 01:36:51;;;;;;;5.97;4.00;;;-0.60;99.20;;;;;;5014915;28;20128;-84
2023/10/27 01:39:18;;;;;;;5.32;3.50;;;-0.70;99.10;;;;;;5002619;28;20442;-86
2023/10/27 01:41:44;;;;;;;8.35;5.97;;;-0.70;99.30;;;;;;5035356;28;20005;-88
2023/10/27 01:44:10;;;;;;;6.10;4.88;;;-0.70;99.30;;;;;;5018521;28;20109;-87
2023/10/27 01:46:36;;;;;;;7.97;4.88;;;-0.70;99.20;;;;;;5015310;28;20487;-83
2023/10/27 01:49:03;;;;;;;7.00;4.60;;;-0.70;99.20;;;;;;5031455;28;20033;-81
2023/10/27 01:51:29;;;;;;;7.47;5.23;;;-0.70;99.20;;;;;;5031381;28;20487;-81
2023/10/27 01:53:54;;;;;;;8.38;5.15;;;-0.70;99.30;;;;;;5020576;28;20275;-82
2023/10/27 01:56:20;;;;;;;9.50;5.30;;;-0.70;99.20;;;;;;5018956;28;20140;-83
2023/10/27 01:58:46;;;;;;;7.65;5.03;;;-0.70;99.20;;;;;;5029066;28;20026;-84
2023/10/27 02:01:14;;;;;;;6.70;4.40;;;-0.70;99.30;;;;;;4997685;28;20030;-82
2023/10/27 02:03:40;;;;;;;9.57;4.85;;;-0.70;99.30;;;;;;5021393;28;20022;-85
2023/10/27 02:06:06;;;;;;;7.57;4.43;;;-0.70;99.40;;;;;;5017100;28;20513;-85
2023/10/27 02:08:32;;;;;;;8.30;4.30;;;-0.70;99.40;;;;;;5021238;28;20017;-84
2023/10/27 02:10:58;;;;;;;7.28;4.40;;;-0.60;99.40;;;;;;5010728;28;20065;-84
2023/10/27 02:13:24;;;;;;;6.57;4.20;;;-0.60;99.40;;;;;;5023172;28;20505;-84
2023/10/27 02:15:50;;;;;;;6.47;4.97;;;-0.70;99.30;;;;;;5054784;28;20033;-83
2023/10/27 02:18:15;;;;;;;6.28;5.10;;;-0.60;99.30;;;;;;5055404;28;20389;-86
2023/10/27 02:20:41;;;;;;;5.80;4.05;;;-0.60;99.30;;;;;;5038060;28;20041;-86
2023/10/27 02:23:07;;;;;;;10.13;5.13;;;-0.60;99.20;;;;;;5020535;28;20438;-84
2023/10/27 02:25:33;;;;;;;7.22;4.70;;;-0.60;99.20;;;;;;5026552;28;20022;-87
2023/10/27 02:28:00;;;;;;;3.28;2.78;;;-0.60;99.30;;;;;;5038149;28;20129;-85
2023/10/27 02:30:26;;;;;;;7.97;4.38;;;-0.60;99.50;;;;;;5015032;28;20073;-86
2023/10/27 02:32:52;;;;;;;5.10;3.28;;;-0.70;99.70;;;;;;5015328;28;20080;-87
2023/10/27 02:35:17;;;;;;;10.73;3.90;;;-0.70;99.90;;;;;;5016981;28;20061;-86
2023/10/27 02:37:43;;;;;;;6.75;4.30;;;-0.70;99.90;;;;;;5023517;28;20026;-86
2023/10/27 02:40:09;;;;;;;7.45;4.45;;;-0.60;99.90;;;;;;5018397;28;20065;-86
2023/10/27 02:42:38;;;;;;;6.10;3.88;;;-0.60;99.80;;;;;;5017702;28;20038;-85
2023/10/27 02:45:04;;;;;;;6.63;4.28;;;-0.60;99.90;;;;;;5020452;28;20108;-84
2023/10/27 02:47:30;;;;;;;9.75;5.05;;;-0.60;99.90;;;;;;5019752;28;20124;-88
2023/10/27 02:49:56;;;;;;;5.82;4.00;;;-0.60;99.90;;;;;;5014833;28;20064;-88
2023/10/27 02:52:21;;;;;;;5.63;3.95;;;-0.60;99.90;;;;;;5016499;28;20034;-88
2023/10/27 02:54:47;;;;;;;6.72;4.38;;;-0.60;99.90;;;;;;5026819;28;20491;-86
2023/10/27 02:57:13;;;;;;;5.15;3.95;;;-0.60;99.90;;;;;;5014209;28;20034;-86
2023/10/27 02:59:39;;;;;;;9.75;4.97;;;-0.50;99.90;;;;;;5005092;28;20030;-86
2023/10/27 03:02:05;;;;;;;6.20;4.05;;;-0.50;99.80;;;;;;5017221;28;20072;-86
2023/10/27 03:04:31;;;;;;;5.95;4.00;;;-0.50;99.90;;;;;;5013935;28;20018;-83
2023/10/27 03:06:57;;;;;;;5.32;4.05;;;-0.50;99.80;;;;;;5024758;28;20046;-86
2023/10/27 03:09:23;;;;;;;7.57;5.00;;;-0.50;99.60;;;;;;4996670;28;20025;-87
2023/10/27 03:11:48;;;;;;;9.85;4.47;;;-0.50;99.50;;;;;;4996339;28;20022;-85
2023/10/27 03:14:15;;;;;;;7.70;4.63;;;-0.50;99.40;;;;;;5034753;28;20073;-85
2023/10/27 03:16:43;;;;;;;6.27;3.93;;;-0.50;99.60;;;;;;5043360;28;20036;-90
2023/10/27 03:19:09;;;;;;;7.57;5.13;;;-0.50;99.70;;;;;;5034126;28;20064;-90
2023/10/27 03:21:37;;;;;;;6.32;4.22;;;-0.50;99.70;;;;;;5015841;28;20049;-86
2023/10/27 03:24:04;;;;;;;6.05;3.95;;;-0.50;99.70;;;;;;5000401;28;20026;-86
2023/10/27 03:26:31;;;;;;;5.65;4.38;;;-0.50;99.80;;;;;;5014009;28;20026;-85
2023/10/27 03:28:57;;;;;;;6.63;4.70;;;-0.40;99.80;;;;;;4996066;28;20414;-87
2023/10/27 03:31:23;;;;;;;5.28;4.07;;;-0.40;99.80;;;;;;5013666;28;20022;-85
2023/10/27 03:33:48;;;;;;;5.40;3.92;;;-0.40;99.90;;;;;;5025930;28;20049;-86
2023/10/27 03:36:14;;;;;;;6.97;4.22;;;-0.40;99.80;;;;;;5022629;28;20415;-87
2023/10/27 03:38:40;;;;;;;7.88;5.00;;;-0.40;99.70;;;;;;5031414;28;20017;-88
2023/10/27 03:41:06;;;;;;;8.10;5.88;;;-0.30;99.60;;;;;;5026191;28;20033;-87
2023/10/27 03:43:34;;;;;;;6.95;3.50;;;-0.30;99.50;;;;;;5003677;28;20030;-89
2023/10/27 03:46:00;;;;;;;4.75;4.30;;;-0.30;99.60;;;;;;5019988;28;20014;-89
2023/10/27 03:48:26;;;;;;;8.15;4.95;;;-0.30;99.70;;;;;;5024228;28;20032;-86
2023/10/27 03:50:52;;;;;;;7.90;4.45;;;-0.40;99.80;;;;;;5025077;28;20049;-85
2023/10/27 03:53:19;;;;;;;8.73;6.00;;;-0.30;99.90;;;;;;5036906;28;20107;-85
2023/10/27 03:55:54;;;;;;;6.30;4.90;;;-0.30;99.70;;;;;;5029248;28;20033;-87
2023/10/27 03:58:19;;;;;;;9.52;5.40;;;-0.30;99.70;;;;;;5045823;28;20052;-86
2023/10/27 04:00:45;;;;;;;6.28;5.05;;;-0.30;99.70;;;;;;5023654;28;20514;-84
2023/10/27 04:03:12;;;;;;;8.95;5.35;;;-0.30;99.70;;;;;;5018335;28;20045;-87
2023/10/27 04:05:38;;;;;;;11.48;5.82;;;-0.30;99.70;;;;;;5038388;28;20039;-84
2023/10/27 04:08:07;;;;;;;10.93;6.47;;;-0.30;99.80;;;;;;5039640;28;20033;-84
2023/10/27 04:10:37;;;;;;;12.23;5.85;;;-0.30;99.80;;;;;;5047909;28;20014;-86
2023/10/27 04:13:04;;;;;;;7.57;5.15;;;-0.20;99.90;;;;;;5051229;28;20032;-85
2023/10/27 04:15:30;;;;;;;8.50;5.70;;;-0.20;99.90;;;;;;5031817;28;20042;-85
2023/10/27 04:17:56;;;;;;;6.57;4.90;;;-0.20;99.90;;;;;;5027801;28;20037;-83
2023/10/27 04:20:22;;;;;;;6.32;4.50;;;-0.20;99.90;;;;;;5018301;28;20048;-84
2023/10/27 04:22:48;;;;;;;8.52;5.10;;;-0.20;99.90;;;;;;5006136;28;20033;-86
2023/10/27 04:25:14;;;;;;;7.95;5.35;;;-0.20;99.90;;;;;;5028658;28;20017;-86
2023/10/27 04:27:40;;;;;;;9.10;6.05;;;-0.30;99.90;;;;;;5019881;28;20029;-85
2023/10/27 04:30:07;;;;;;;10.10;5.63;;;-0.30;99.90;;;;;;5016422;28;20113;-86
2023/10/27 04:32:39;;;;;;;9.02;6.65;;;-0.30;99.90;;;;;;5022366;28;20079;-87
2023/10/27 04:35:05;;;;;;;8.93;6.35;;;-0.30;99.90;;;;;;5022257;28;20094;-86
2023/10/27 04:37:32;;;;;;;13.45;7.10;;;-0.30;99.90;;;;;;5039986;28;20425;-87
2023/10/27 04:40:01;;;;;;;9.33;6.83;;;-0.30;99.90;;;;;;5025472;28;20021;-86
2023/10/27 04:42:27;;;;;;;9.40;6.22;;;-0.30;99.90;;;;;;5033897;28;20026;-86
2023/10/27 04:44:53;;;;;;;8.50;5.60;;;-0.30;99.90;;;;;;5017993;28;20080;-85
2023/10/27 04:47:19;;;;;;;7.97;6.10;;;-0.30;99.90;;;;;;5044505;28;20033;-85
2023/10/27 04:49:48;;;;;;;9.93;6.57;;;-0.30;99.90;;;;;;5008678;28;20430;-87
2023/10/27 04:52:14;;;;;;;7.55;5.60;;;-0.30;99.90;;;;;;4995659;28;20029;-87
2023/10/27 04:54:39;;;;;;;7.60;6.07;;;-0.40;99.90;;;;;;5010298;28;20025;-85
2023/10/27 04:57:05;;;;;;;6.88;6.15;;;-0.30;99.90;;;;;;5020592;28;20030;-85
2023/10/27 04:59:34;;;;;;;11.57;6.78;;;-0.30;99.90;;;;;;5012707;28;20727;-85
2023/10/27 05:02:00;;;;;;;11.35;5.82;;;-0.30;99.90;;;;;;4996641;28;20030;-81
2023/10/27 05:04:26;;;;;;;10.60;6.85;;;-0.30;99.90;;;;;;5012227;28;20112;-81
2023/10/27 05:06:52;;;;;;;9.00;6.32;;;-0.30;99.90;;;;;;5012046;28;20442;-82
2023/10/27 05:09:21;;;;;;;6.72;6.00;;;-0.30;99.90;;;;;;5011789;28;20022;-82
2023/10/27 05:11:47;;;;;;;9.48;6.50;;;-0.30;99.90;;;;;;4993883;28;20080;-82
2023/10/27 05:14:13;;;;;;;9.35;6.40;;;-0.20;99.90;;;;;;5011633;28;20403;-85
2023/10/27 05:16:41;;;;;;;12.25;8.32;;;-0.20;99.90;;;;;;4994298;28;20026;-81
2023/10/27 05:19:07;;;;;;;;;;;-0.20;99.90;;;;;;5013835;28;20395;-79
2023/10/27 05:21:33;;;;;;;12.20;6.82;;;-0.20;99.90;;;;;;5011664;28;19905;-79
2023/10/27 05:24:01;;;;;;;11.20;7.10;;;-0.20;99.90;;;;;;5013378;28;20018;-80
2023/10/27 05:26:27;;;;;;;6.63;5.53;;;-0.20;99.90;;;;;;5014303;28;20040;-79
2023/10/27 05:28:52;;;;;;;11.13;6.82;;;-0.20;99.90;;;;;;4998730;28;20495;-80
2023/10/27 05:31:18;;;;;;;17.52;7.03;;;-0.10;99.90;;;;;;5015464;28;20053;-79
2023/10/27 05:33:44;;;;;;;11.95;7.47;;;-0.10;99.90;;;;;;4997432;28;20462;-80
2023/10/27 05:36:10;;;;;;;9.13;6.68;;;-0.10;99.90;;;;;;5002784;28;20024;-79
2023/10/27 05:38:36;;;;;;;10.00;6.88;;;-0.10;99.90;;;;;;5019244;28;20026;-78
2023/10/27 05:41:03;;;;;;;8.68;7.32;;;-0.10;99.90;;;;;;5015156;28;20025;-80
2023/10/27 05:43:29;;;;;;;11.60;8.70;;;-0.10;99.90;;;;;;4997415;28;20407;-82
2023/10/27 05:45:55;;;;;;;11.48;8.13;;;-0.10;99.90;;;;;;5014960;28;20030;-81
2023/10/27 05:48:21;;;;;;;12.35;7.00;;;-0.10;99.90;;;;;;5016770;28;20030;-79
2023/10/27 05:50:47;;;;;;;9.48;7.05;;;-0.10;99.90;;;;;;5025088;28;20385;-86
2023/10/27 05:53:15;;;;;;;10.43;6.70;;;-0.10;99.90;;;;;;5017624;28;20025;-81
2023/10/27 05:55:42;;;;;;;11.05;7.32;;;0.00;99.90;;;;;;5016043;28;20378;-84
2023/10/27 05:58:07;;;;;;;9.57;7.50;;;0.00;99.90;;;;;;5030209;28;20029;-82
2023/10/27 06:00:33;;;;;;;13.30;8.50;;;0.00;99.90;;;;;;5003880;28;20022;-83
2023/10/27 06:02:59;;;;;;;11.02;8.13;;;0.00;99.90;;;;;;4997791;28;20077;-81
2023/10/27 06:05:25;;;;;;;12.05;7.43;;;0.00;99.90;;;;;;5014135;28;20022;-82
2023/10/27 06:07:51;;;;;;;12.05;7.68;;;0.10;99.90;;;;;;5020819;28;20038;-82
2023/10/27 06:10:18;;;;;;;12.57;7.65;;;0.10;99.90;;;;;;5014853;28;20018;-83
2023/10/27 06:12:43;;;;;;;9.80;7.20;;;0.10;99.90;;;;;;4996972;28;20044;-83
2023/10/27 06:15:09;;;;;;;9.18;7.45;;;0.10;99.90;;;;;;4996615;28;20291;-82
2023/10/27 06:17:35;;;;;;;15.35;8.18;;;0.10;99.90;;;;;;5014549;28;20400;-82
2023/10/27 06:20:02;;;;;;;10.10;7.75;;;0.10;99.90;;;;;;5000488;28;20034;-83
2023/10/27 06:22:29;;;;;;;12.90;8.60;;;0.10;99.90;;;;;;5001766;28;20026;-82
2023/10/27 06:24:55;;;;;;;11.50;7.72;;;0.20;99.90;;;;;;5015520;28;20495;-82
2023/10/27 06:27:20;;;;;;;14.15;8.32;;;0.20;99.90;;;;;;5018696;28;20049;-82
2023/10/27 06:29:47;;;;;;;11.60;8.00;;;0.20;99.90;;;;;;5004159;28;20445;-81
2023/10/27 06:32:13;;;;;;;10.00;8.45;;;0.20;99.90;;;;;;5020148;28;20060;-84
2023/10/27 06:34:38;;;;;;;14.57;8.10;;;0.20;99.90;;;;;;4998114;28;20018;-83
2023/10/27 06:37:05;;;;;;;9.70;7.65;;;0.20;99.90;;;;;;5021077;28;20030;-83
2023/10/27 06:39:31;;;;;;;11.07;8.30;;;0.20;99.90;;;;;;5013278;28;20018;-82
2023/10/27 06:41:58;;;;;;;11.35;8.48;;;0.20;99.90;;;;;;4996255;28;20040;-84
2023/10/27 06:44:24;;;;;;;11.32;9.02;;;0.20;99.90;;;;;;5014574;28;20437;-83
2023/10/27 06:46:50;;;;;;;15.50;8.05;;;0.20;99.90;;;;;;5021341;28;20030;-83
2023/10/27 06:49:16;;;;;;;14.85;8.95;;;0.20;99.90;;;;;;5022502;28;20088;-83
2023/10/27 06:51:42;;;;;;;11.57;8.10;;;0.20;99.90;;;;;;5034064;28;20025;-83
2023/10/27 06:54:08;;;;;;;12.20;7.95;;;0.20;99.90;;;;;;5033965;28;20427;-82
2023/10/27 06:56:34;;;;;;;11.27;8.40;;;0.20;99.90;;;;;;5033723;28;20021;-84
2023/10/27 06:58:59;;;;;;;14.10;8.27;;;0.20;99.90;;;;;;5032899;28;20096;-83
2023/10/27 07:01:25;;;;;;;15.13;9.32;;;0.20;99.90;;;;;;5015793;28;20041;-83
2023/10/27 07:03:51;;;;;;;12.88;8.48;;;0.20;99.90;;;;;;5033931;28;20068;-82
2023/10/27 07:06:20;;;;;;;10.23;8.00;;;0.20;99.90;;;;;;5034782;28;20044;-84
2023/10/27 07:08:46;;;;;;;10.32;7.85;;;0.20;99.90;;;;;;5021194;28;20060;-83
2023/10/27 07:11:12;;;;;;;10.18;8.63;;;0.20;99.90;;;;;;5024870;28;20461;-83
2023/10/27 07:13:38;;;;;;;10.73;7.18;;;0.20;99.90;;;;;;5034238;28;20028;-83
2023/10/27 07:16:04;;;;;;;10.80;8.18;;;0.20;99.90;;;;;;5015581;28;20049;-85
2023/10/27 07:18:30;;;;;;;10.30;8.45;;;0.20;99.90;;;;;;5016603;28;20052;-84
2023/10/27 07:20:56;;;;;;;10.80;9.02;;;0.30;99.90;;;;;;5033898;28;20029;-83
2023/10/27 07:23:22;;;;;;;12.02;8.85;;;0.20;99.90;;;;;;5033510;28;20026;-83
2023/10/27 07:25:48;;;;;;;7.95;6.40;;;0.30;99.90;;;;;;5033408;28;20079;-83
2023/10/27 07:28:14;;;;;;;12.95;9.70;;;0.30;99.90;;;;;;5029041;28;20029;-84
2023/10/27 07:30:40;;;;;;;9.55;7.72;;;0.30;99.90;;;;;;5026834;28;20029;-84
2023/10/27 07:33:06;;;;;;;12.68;7.38;;;0.30;99.90;;;;;;5023920;28;20036;-83
2023/10/27 07:35:38;;;;;;;10.43;7.45;;;0.30;99.90;;;;;;5050189;28;20033;-84
2023/10/27 07:38:03;;;;;;;12.52;8.90;;;0.30;99.90;;;;;;5018377;28;20034;-84
2023/10/27 07:40:30;;;;;;;11.23;8.15;;;0.30;99.90;;;;;;5031545;28;20029;-84
2023/10/27 07:42:58;;;;;;;10.48;7.57;;;0.30;99.90;;;;;;5052429;28;20045;-83
2023/10/27 07:45:25;;;;;;;15.23;8.70;;;0.20;99.90;;;;;;5024496;28;20487;-82
2023/10/27 07:47:51;;;;;;;14.80;8.23;;;0.20;99.90;;;;;;5033771;28;20033;-83
2023/10/27 07:50:17;;;;;;;11.18;8.40;;;0.30;99.90;;;;;;5023040;28;20455;-83
2023/10/27 07:52:45;;;;;;;11.20;7.75;;;0.30;99.90;;;;;;5040213;28;20104;-82
2023/10/27 07:55:10;;;;;;;14.40;8.60;;;0.30;99.90;;;;;;5036264;28;20045;-82
2023/10/27 07:57:36;;;;;;;11.90;8.57;;;0.30;99.90;;;;;;5022030;28;20403;-82
2023/10/27 08:00:04;;;;;;;11.38;8.10;;;0.30;99.90;;;;;;5030483;28;20049;-83
2023/10/27 08:02:32;;;;;;;;;;;0.30;99.90;;;;;;5008925;28;20402;-83
2023/10/27 08:04:58;;;;;;;16.60;9.15;;;0.40;99.90;;;;;;5015021;28;19910;-83
2023/10/27 08:07:24;;;;;;;10.50;7.15;;;0.30;99.90;;;;;;5014523;28;20036;-83
2023/10/27 08:09:50;;;;;;;14.77;9.73;;;0.30;99.90;;;;;;5032448;28;20018;-82
2023/10/27 08:12:16;;;;;;;11.75;9.15;;;0.30;99.90;;;;;;5032271;28;20099;-84
2023/10/27 08:14:42;;;;;;;15.68;8.38;;;0.30;99.90;;;;;;5014900;28;20049;-82
2023/10/27 08:17:08;;;;;;;12.35;8.50;;;0.30;99.90;;;;;;5024607;28;20508;-82
2023/10/27 08:19:33;;;;;;;14.60;9.05;;;0.30;99.90;;;;;;5002894;28;20026;-82
2023/10/27 08:21:59;;;;;;;13.02;8.73;;;0.30;99.90;;;;;;5012013;28;20026;-80
2023/10/27 08:24:25;;;;;;;11.32;9.02;;;0.40;99.90;;;;;;5012464;28;20055;-82
2023/10/27 08:26:51;;;;;;;13.82;8.63;;;0.30;99.90;;;;;;5011811;28;20096;-81
2023/10/27 08:29:17;;;;;;;11.18;8.55;;;0.30;99.90;;;;;;5012140;28;20415;-82
2023/10/27 08:31:43;;;;;;;11.75;8.15;;;0.30;99.90;;;;;;5012272;28;20030;-81
2023/10/27 08:34:11;;;;;;;14.82;8.98;;;0.30;99.90;;;;;;5012164;28;20383;-84
2023/10/27 08:36:38;;;;;;;13.57;8.63;;;0.30;99.90;;;;;;5015995;28;20071;-80
2023/10/27 08:39:04;;;;;;;13.63;9.05;;;0.30;99.90;;;;;;5015174;28;20069;-81
2023/10/27 08:41:30;;;;;;;9.65;7.00;;;0.40;99.90;;;;;;5013795;28;20025;-83
2023/10/27 08:43:57;;;;;;;11.55;7.00;;;0.30;99.90;;;;;;5012177;28;20084;-80
2023/10/27 08:46:24;;;;;;;11.90;8.17;;;0.40;99.90;;;;;;5011889;28;20574;-81
2023/10/27 08:48:50;;;;;;;11.15;7.80;;;0.40;99.90;;;;;;4994240;28;20022;-83
2023/10/27 08:51:18;;;;;;;10.73;7.60;;;0.40;99.90;;;;;;5011911;28;20029;-83
2023/10/27 08:53:44;;;;;;;14.88;8.50;;;0.30;99.90;;;;;;5012086;28;20101;-84
2023/10/27 08:56:13;;;;;;;9.48;7.57;;;0.40;99.90;;;;;;5012371;28;20022;-84
2023/10/27 08:58:47;;;;;;;12.80;8.98;;;0.40;99.90;;;;;;5003049;28;20092;-84
2023/10/27 09:01:13;;;;;;;11.85;8.82;;;0.40;99.90;;;;;;5012063;28;20033;-83
2023/10/27 09:03:40;;;;;;;8.23;6.70;;;0.40;99.90;;;;;;5015540;28;20014;-82
2023/10/27 09:06:06;;;;;;;8.45;6.93;;;0.40;99.90;;;;;;5016851;28;20029;-81
2023/10/27 09:08:32;;;;;;;12.13;7.47;;;0.40;99.90;;;;;;5018279;28;20026;-81
2023/10/27 09:10:58;;;;;;;11.55;8.20;;;0.40;99.90;;;;;;5015981;28;20046;-83
2023/10/27 09:13:24;;;;;;;10.77;7.07;;;0.40;99.90;;;;;;5005769;28;20068;-82
2023/10/27 09:15:51;;;;;;;12.23;8.18;;;0.40;99.90;;;;;;5015555;28;20046;-83
2023/10/27 09:18:18;;;;;;;11.43;7.72;;;0.40;99.90;;;;;;5016417;28;20774;-83
2023/10/27 09:20:48;;;;;;;;;;;0.40;99.90;;;;;;5016886;28;20022;-84
2023/10/27 09:23:14;;;;;;;15.10;7.90;;;0.40;99.90;;;;;;5017249;28;19909;-82
2023/10/27 09:25:40;;;;;;;12.60;7.65;;;0.40;99.90;;;;;;5020062;28;20073;-87
2023/10/27 09:28:06;;;;;;;10.90;8.65;;;0.30;99.90;;;;;;5016515;28;20169;-81
2023/10/27 09:30:34;;;;;;;23.70;13.30;;;0.40;99.90;;;;;;5020772;28;20407;-79
2023/10/27 09:33:22;;;;;;;18.55;11.32;;;0.40;99.90;;;;;;5021938;28;20029;-82
2023/10/27 09:35:58;;;;;;;17.30;10.00;;;0.40;99.90;;;;;;5028989;28;20022;-85
2023/10/27 09:38:23;;;;;;;12.55;10.00;;;0.40;99.90;;;;;;5006332;28;20709;-86
2023/10/27 09:40:50;;;;;;;14.35;8.95;;;0.40;99.90;;;;;;5016764;28;20018;-85
2023/10/27 09:43:20;;;;;;;11.30;8.90;;;0.40;99.90;;;;;;5016322;28;20030;-87
2023/10/27 09:45:54;;;;;;;15.48;10.10;;;0.40;99.90;;;;;;5023840;28;20105;-86
2023/10/27 09:48:25;;;;;;;13.13;10.07;;;0.40;99.90;;;;;;4999402;28;20034;-84
2023/10/27 09:51:00;;;;;;;15.25;9.82;;;0.40;99.90;;;;;;5015582;28;20014;-85
2023/10/27 09:53:30;;;;;;;13.50;10.48;;;0.40;99.90;;;;;;5016293;28;20046;-86
2023/10/27 09:56:00;;;;;;;17.33;10.23;;;0.40;99.90;;;;;;5015872;28;20495;-88
2023/10/27 09:58:33;;;;;;;14.35;10.82;;;0.40;99.90;;;;;;5018707;28;20135;-88
2023/10/27 10:01:01;;;;;;;13.82;9.70;;;0.50;99.90;;;;;;5022140;28;20027;-86
2023/10/27 10:03:27;;;;;;;12.80;9.25;;;0.40;99.90;;;;;;5023354;28;20018;-87
2023/10/27 10:06:18;;;;;;;15.07;11.90;;;0.40;99.90;;;;;;4998231;28;20136;-88
2023/10/27 10:09:09;;;;;;;11.50;9.25;;;0.40;99.90;;;;;;5016931;28;20022;-87
2023/10/27 10:11:55;;;;;;;12.18;9.48;;;0.40;99.90;;;;;;4998478;28;20471;-88
2023/10/27 10:14:36;;;;;;;16.43;10.73;;;0.40;99.90;;;;;;4997175;28;20103;-86
2023/10/27 10:17:04;;;;;;;18.60;11.70;;;0.40;99.90;;;;;;5016063;28;20032;-87
2023/10/27 10:19:52;;;;;;;24.25;11.07;;;0.40;99.90;;;;;;5017722;28;20486;-87
2023/10/27 10:22:40;;;;;;;19.67;12.88;;;0.40;99.90;;;;;;5013615;28;20038;-87
2023/10/27 10:25:14;;;;;;;15.68;9.77;;;0.40;99.90;;;;;;5015993;28;20058;-80
2023/10/27 10:28:08;;;;;;;16.17;11.18;;;0.40;99.90;;;;;;5007674;28;20025;-84
2023/10/27 10:30:34;;;;;;;13.90;10.32;;;0.40;99.90;;;;;;5025374;28;20030;-84
2023/10/27 10:33:21;;;;;;;15.95;10.93;;;0.40;99.90;;;;;;5014542;28;20026;-84
2023/10/27 10:35:48;;;;;;;14.63;11.10;;;0.40;99.90;;;;;;5007822;28;20057;-84
2023/10/27 10:38:22;;;;;;;15.13;12.10;;;0.40;99.90;;;;;;5021467;28;20022;-85
2023/10/27 10:40:56;;;;;;;15.95;11.82;;;0.40;99.90;;;;;;5014594;28;20528;-83
2023/10/27 10:43:36;;;;;;;20.27;11.95;;;0.40;99.90;;;;;;5014391;28;20022;-84
2023/10/27 10:46:04;;;;;;;16.73;12.35;;;0.40;99.90;;;;;;5014422;28;20490;-84
2023/10/27 10:48:32;;;;;;;14.80;11.35;;;0.40;99.90;;;;;;5015249;28;20368;-83
2023/10/27 10:51:18;;;;;;;16.10;11.30;;;0.40;99.90;;;;;;5028500;28;20029;-83
2023/10/27 10:53:50;;;;;;;16.08;11.07;;;0.40;99.90;;;;;;5037420;28;20025;-85
2023/10/27 10:56:17;;;;;;;14.90;11.35;;;0.40;99.90;;;;;;5039446;28;20033;-84
2023/10/27 10:58:42;;;;;;;14.05;10.57;;;0.40;99.90;;;;;;5026587;28;20163;-84
2023/10/27 11:01:21;;;;;;;15.68;12.60;;;0.40;99.90;;;;;;5015859;28;20052;-86
2023/10/27 11:03:52;;;;;;;22.17;12.02;;;0.40;99.90;;;;;;5027089;28;20025;-84
2023/10/27 11:06:27;;;;;;;19.23;13.80;;;0.40;99.90;;;;;;5054055;28;20021;-85
2023/10/27 11:08:54;;;;;;;20.65;14.13;;;0.40;99.90;;;;;;4999934;28;20026;-85
2023/10/27 11:11:21;;;;;;;22.60;12.45;;;0.40;99.90;;;;;;5003994;28;20104;-85
2023/10/27 11:13:47;;;;;;;14.40;11.73;;;0.40;99.90;;;;;;5034756;28;20013;-85
2023/10/27 11:16:23;;;;;;;16.83;12.75;;;0.40;99.90;;;;;;5043608;28;20072;-86
2023/10/27 11:18:57;;;;;;;17.48;13.00;;;0.40;99.90;;;;;;5036760;28;20028;-85
2023/10/27 11:21:24;;;;;;;19.83;12.88;;;0.40;99.90;;;;;;5015872;28;20022;-86
2023/10/27 11:23:50;;;;;;;;;;;0.40;99.90;;;;;;5024160;28;20509;-85
2023/10/27 11:26:18;;;;;;;17.75;11.73;;;0.40;99.90;;;;;;5015080;28;20349;-85
2023/10/27 11:28:45;;;;;;;15.15;11.23;;;0.40;99.90;;;;;;5015910;28;20124;-85
2023/10/27 11:31:21;;;;;;;17.57;11.40;;;0.40;99.90;;;;;;5033683;28;20100;-84
2023/10/27 11:34:11;;;;;;;14.73;10.43;;;0.40;99.90;;;;;;5015444;28;20029;-84
2023/10/27 11:36:39;;;;;;;14.57;9.77;;;0.40;99.90;;;;;;5029915;28;20033;-85
2023/10/27 11:39:22;;;;;;;14.77;11.15;;;0.40;99.90;;;;;;5003393;28;20022;-84
2023/10/27 11:41:53;;;;;;;15.65;9.77;;;0.40;99.90;;;;;;5012801;28;20159;-83
2023/10/27 11:44:19;;;;;;;13.10;8.23;;;0.40;99.90;;;;;;5005692;28;20018;-84
2023/10/27 11:46:49;;;;;;;15.50;10.27;;;0.40;99.90;;;;;;5013522;28;20041;-84
2023/10/27 11:49:15;;;;;;;14.25;10.60;;;0.40;99.90;;;;;;5013572;28;20034;-84
2023/10/27 11:51:45;;;;;;;16.08;9.85;;;0.40;99.90;;;;;;5015467;28;20040;-85
2023/10/27 11:54:12;;;;;;;12.82;8.73;;;0.40;99.90;;;;;;5021435;28;20026;-83
2023/10/27 11:56:38;;;;;;;19.27;9.87;;;0.40;99.90;;;;;;4995616;28;20053;-81
2023/10/27 11:59:04;;;;;;;13.00;10.27;;;0.40;99.90;;;;;;5001531;28;20083;-83
2023/10/27 12:01:31;;;;;;;13.77;9.20;;;0.40;99.90;;;;;;5012820;28;20415;-82
2023/10/27 12:03:57;;;;;;;11.40;8.45;;;0.40;99.90;;;;;;5012613;28;20105;-81
2023/10/27 12:06:23;;;;;;;15.30;9.07;;;0.40;99.90;;;;;;5012784;28;20467;-81
2023/10/27 12:08:49;;;;;;;20.10;10.55;;;0.40;99.90;;;;;;5013412;28;20082;-83
2023/10/27 12:11:17;;;;;;;12.30;8.45;;;0.40;99.90;;;;;;5012741;28;20029;-82
2023/10/27 12:13:44;;;;;;;18.35;11.05;;;0.40;99.90;;;;;;4995126;28;20033;-84
2023/10/27 12:16:11;;;;;;;16.25;9.50;;;0.40;99.90;;;;;;4995190;28;20045;-83
2023/10/27 12:18:36;;;;;;;13.82;10.38;;;0.40;99.90;;;;;;5012385;28;20034;-83
2023/10/27 12:21:03;;;;;;;12.55;9.20;;;0.40;99.90;;;;;;4998698;28;20041;-83
2023/10/27 12:23:32;;;;;;;12.68;8.25;;;0.40;99.90;;;;;;5012654;28;20026;-83
2023/10/27 12:26:01;;;;;;;13.38;8.73;;;0.40;99.90;;;;;;5013018;28;20088;-83
2023/10/27 12:28:27;;;;;;;16.63;10.00;;;0.40;99.90;;;;;;5014694;28;20037;-83
2023/10/27 12:30:58;;;;;;;13.38;7.97;;;0.40;99.90;;;;;;4999761;28;20483;-82
2023/10/27 12:33:24;;;;;;;14.15;8.63;;;0.40;99.90;;;;;;5018351;28;20038;-83
2023/10/27 12:35:50;;;;;;;15.20;9.50;;;0.40;99.90;;;;;;5013997;28;20064;-82
2023/10/27 12:38:19;;;;;;;13.18;9.27;;;0.40;99.90;;;;;;5015894;28;20105;-83
2023/10/27 12:40:47;;;;;;;14.48;8.93;;;0.40;99.90;;;;;;5013304;28;20101;-82
2023/10/27 12:43:14;;;;;;;;;;;0.30;99.90;;;;;;4997150;28;20033;-85
2023/10/27 12:45:43;;;;;;;;;;;0.30;99.90;;;;;;5024098;28;19909;-83
2023/10/27 12:48:10;;;;;;;12.15;7.85;;;0.30;99.90;;;;;;5016608;28;19917;-85